createdAt,value
2019-04-25T00:01:57.995Z,1.57
2019-04-25T00:04:48.980Z,1.20
2019-04-25T00:07:41.806Z,1.50
2019-04-25T00:10:31.879Z,1.40
2019-04-25T00:13:22.727Z,1.70
2019-04-25T00:16:14.523Z,1.70
2019-04-25T00:19:06.456Z,1.80
2019-04-25T00:22:11.821Z,1.50
2019-04-25T00:25:36.494Z,1.60
2019-04-25T00:28:27.936Z,1.90
2019-04-25T00:31:19.150Z,1.77
2019-04-25T00:34:12.095Z,1.50
2019-04-25T00:37:03.970Z,1.53
2019-04-25T00:39:54.489Z,1.47
2019-04-25T00:42:44.931Z,1.80
2019-04-25T00:45:35.848Z,1.60
2019-04-25T00:48:26.563Z,1.70
2019-04-25T00:51:17.894Z,1.60
2019-04-25T00:54:09.157Z,1.90
2019-04-25T00:57:00.112Z,1.60
2019-04-25T00:59:56.425Z,1.80
2019-04-25T01:02:49.442Z,1.70
2019-04-25T01:05:42.375Z,1.67
2019-04-25T01:08:33.326Z,1.77
2019-04-25T01:11:24.335Z,1.83
2019-04-25T01:14:15.290Z,1.40
2019-04-25T01:17:06.307Z,1.60
2019-04-25T01:19:58.079Z,1.77
2019-04-25T01:22:49.328Z,1.70
2019-04-25T01:25:44.284Z,1.80
2019-04-25T01:28:35.538Z,1.60
2019-04-25T01:31:29.225Z,1.87
2019-04-25T01:34:25.812Z,1.80
2019-04-25T01:37:35.404Z,1.63
2019-04-25T01:40:36.961Z,1.63
2019-04-25T01:43:37.033Z,1.93
2019-04-25T01:46:29.005Z,1.60
2019-04-25T01:49:20.218Z,1.80
2019-04-25T01:52:10.372Z,1.70
2019-04-25T01:55:01.537Z,1.60
2019-04-25T01:57:54.603Z,1.53
2019-04-25T02:00:48.309Z,1.60
2019-04-25T02:03:39.071Z,1.50
2019-04-25T02:06:30.135Z,1.40
2019-04-25T02:09:20.880Z,1.60
2019-04-25T02:12:24.691Z,1.37
2019-04-25T02:15:16.562Z,1.80
2019-04-25T02:18:08.783Z,1.60
2019-04-25T02:21:00.546Z,1.27
2019-04-25T02:23:51.623Z,1.43
2019-04-25T02:26:43.890Z,1.67
2019-04-25T02:29:33.947Z,1.40
2019-04-25T02:32:24.988Z,1.53
2019-04-25T02:35:16.247Z,1.47
2019-04-25T02:38:08.798Z,1.50
2019-04-25T02:41:00.593Z,1.23
2019-04-25T02:43:50.673Z,1.50
2019-04-25T02:47:14.674Z,1.40
2019-04-25T02:50:15.356Z,1.70
2019-04-25T02:53:30.736Z,1.60
2019-04-25T02:56:33.187Z,1.13
2019-04-25T02:59:14.928Z,1.30
2019-04-25T03:02:08.746Z,1.60
2019-04-25T03:04:59.605Z,1.33
2019-04-25T03:07:54.271Z,1.07
2019-04-25T03:10:44.483Z,1.07
2019-04-25T03:13:36.001Z,1.30
2019-04-25T03:16:27.217Z,1.20
2019-04-25T03:19:39.859Z,1.20
2019-04-25T03:22:31.013Z,1.13
2019-04-25T03:25:24.623Z,1.30
2019-04-25T03:28:15.614Z,1.10
2019-04-25T03:31:13.022Z,1.10
2019-04-25T03:34:02.212Z,1.00
2019-04-25T03:36:51.487Z,1.27
2019-04-25T03:39:43.555Z,1.30
2019-04-25T03:42:34.840Z,1.20
2019-04-25T03:45:26.170Z,1.40
2019-04-25T03:48:17.540Z,1.40
2019-04-25T03:51:08.458Z,1.30
2019-04-25T03:53:59.618Z,1.70
2019-04-25T03:56:54.339Z,1.40
2019-04-25T03:59:43.762Z,1.30
2019-04-25T04:02:35.215Z,1.20
2019-04-25T04:05:26.258Z,1.40
2019-04-25T04:08:18.311Z,1.13
2019-04-25T04:11:08.730Z,1.10
2019-04-25T04:13:59.879Z,1.20
2019-04-25T04:17:28.053Z,1.10
2019-04-25T04:20:33.498Z,0.80
2019-04-25T04:23:30.193Z,0.90
2019-04-25T04:26:23.193Z,1.13
2019-04-25T04:29:15.310Z,1.00
2019-04-25T04:32:06.983Z,1.00
2019-04-25T04:34:57.972Z,1.17
2019-04-25T04:37:48.756Z,1.10
2019-04-25T04:40:38.990Z,1.00
2019-04-25T04:43:29.953Z,1.13
2019-04-25T04:46:20.795Z,1.30
2019-04-25T04:49:14.165Z,1.27
2019-04-25T04:52:06.488Z,1.10
2019-04-25T04:55:05.248Z,0.93
2019-04-25T04:57:49.869Z,1.10
2019-04-25T05:00:41.447Z,1.10
2019-04-25T05:04:00.769Z,0.97
2019-04-25T05:06:59.702Z,1.20
2019-04-25T05:09:50.840Z,1.10
2019-04-25T05:12:43.358Z,1.60
2019-04-25T05:15:34.844Z,1.17
2019-04-25T05:18:36.593Z,1.10
2019-04-25T05:21:18.255Z,1.20
2019-04-25T05:24:09.604Z,1.00
2019-04-25T05:26:59.810Z,1.30
2019-04-25T05:29:50.698Z,1.20
2019-04-25T05:32:41.503Z,1.13
2019-04-25T05:35:33.248Z,1.43
2019-04-25T05:38:25.205Z,1.20
2019-04-25T05:41:26.644Z,0.97
2019-04-25T05:44:17.217Z,1.20
2019-04-25T05:47:08.184Z,1.10
2019-04-25T05:49:59.495Z,1.10
2019-04-25T05:52:50.487Z,1.27
2019-04-25T05:55:41.746Z,1.17
2019-04-25T05:58:33.618Z,1.13
2019-04-25T06:01:27.604Z,1.20
2019-04-25T06:04:17.977Z,1.40
2019-04-25T06:07:08.742Z,1.07
2019-04-25T06:10:27.835Z,1.23
2019-04-25T06:13:27.892Z,1.00
2019-04-25T06:16:28.598Z,1.07
2019-04-25T06:19:40.662Z,1.10
2019-04-25T06:23:08.344Z,1.00
2019-04-25T06:25:58.752Z,1.03
2019-04-25T06:28:56.898Z,1.30
2019-04-25T06:31:43.784Z,0.97
2019-04-25T06:34:36.481Z,0.80
2019-04-25T06:37:27.778Z,1.17
2019-04-25T06:40:18.302Z,0.97
2019-04-25T06:43:08.847Z,1.03
2019-04-25T06:46:36.419Z,1.03
2019-04-25T06:49:29.868Z,1.03
2019-04-25T06:52:29.435Z,1.00
2019-04-25T06:55:17.604Z,0.87
2019-04-25T06:58:11.662Z,1.20
2019-04-25T07:01:01.117Z,1.13
2019-04-25T07:03:53.893Z,1.00
2019-04-25T07:06:45.485Z,0.93
2019-04-25T07:09:36.915Z,1.10
2019-04-25T07:12:31.237Z,0.90
2019-04-25T07:15:20.877Z,0.80
2019-04-25T07:18:13.881Z,1.00
2019-04-25T07:21:05.300Z,1.10
2019-04-25T07:23:56.647Z,1.00
2019-04-25T07:27:01.462Z,0.90
2019-04-25T07:30:10.279Z,1.17
2019-04-25T07:33:18.957Z,1.20
2019-04-25T07:36:10.015Z,1.00
2019-04-25T07:39:08.222Z,1.00
2019-04-25T07:41:54.713Z,1.30
2019-04-25T07:44:51.673Z,1.00
2019-04-25T07:47:37.711Z,1.53
2019-04-25T07:50:29.070Z,1.03
2019-04-25T07:53:19.735Z,1.03
2019-04-25T07:56:11.191Z,1.30
2019-04-25T07:59:01.741Z,1.20
2019-04-25T08:01:53.646Z,1.17
2019-04-25T08:04:44.629Z,1.77
2019-04-25T08:07:36.304Z,1.20
2019-04-25T08:10:29.985Z,1.00
2019-04-25T08:13:23.384Z,1.30
2019-04-25T08:16:15.587Z,1.10
2019-04-25T08:19:06.809Z,1.40
2019-04-25T08:21:58.273Z,1.10
2019-04-25T08:24:49.174Z,1.20
2019-04-25T08:27:40.262Z,1.43
2019-04-25T08:30:31.403Z,1.20
2019-04-25T08:33:23.662Z,1.10
2019-04-25T08:36:14.807Z,1.07
2019-04-25T08:39:07.538Z,1.07
2019-04-25T08:41:58.974Z,1.20
2019-04-25T08:44:49.975Z,1.07
2019-04-25T08:47:40.127Z,1.10
2019-04-25T08:50:39.298Z,1.07
2019-04-25T08:53:35.399Z,1.20
2019-04-25T08:56:31.871Z,1.03
2019-04-25T08:59:47.174Z,0.90
2019-04-25T09:02:59.576Z,1.30
2019-04-25T09:05:51.353Z,1.23
2019-04-25T09:08:45.364Z,1.20
2019-04-25T09:11:36.665Z,1.13
2019-04-25T09:14:26.897Z,1.00
2019-04-25T09:17:16.992Z,1.30
2019-04-25T09:20:07.189Z,1.40
2019-04-25T09:22:57.379Z,1.27
2019-04-25T09:25:47.725Z,1.30
2019-04-25T09:28:40.583Z,1.20
2019-04-25T09:31:30.896Z,0.97
2019-04-25T09:34:21.838Z,1.30
2019-04-25T09:37:14.245Z,1.30
2019-04-25T09:40:10.119Z,0.90
2019-04-25T09:43:00.657Z,1.00
2019-04-25T09:46:14.948Z,1.20
2019-04-25T09:49:21.011Z,0.97
2019-04-25T09:52:15.066Z,0.97
2019-04-25T09:55:28.410Z,1.00
2019-04-25T09:58:44.626Z,1.50
2019-04-25T10:01:36.380Z,1.00
2019-04-25T10:04:28.051Z,1.00
2019-04-25T10:07:19.074Z,1.00
2019-04-25T10:10:10.198Z,1.20
2019-04-25T10:13:03.956Z,0.90
2019-04-25T10:16:06.897Z,1.73
2019-04-25T10:18:57.589Z,0.87
2019-04-25T10:21:48.132Z,1.03
2019-04-25T10:24:39.740Z,1.30
2019-04-25T10:27:30.195Z,1.00
2019-04-25T10:30:23.758Z,0.90
2019-04-25T10:33:14.385Z,1.30
2019-04-25T10:36:05.620Z,1.07
2019-04-25T10:39:07.249Z,1.10
2019-04-25T10:41:48.340Z,1.00
2019-04-25T10:44:40.431Z,0.90
2019-04-25T10:47:31.178Z,0.90
2019-04-25T10:50:23.834Z,1.13
2019-04-25T10:53:16.061Z,1.10
2019-04-25T10:56:07.313Z,1.00
2019-04-25T10:58:58.441Z,1.30
2019-04-25T11:01:48.955Z,1.30
2019-04-25T11:04:47.184Z,0.80
2019-04-25T11:07:36.393Z,1.03
2019-04-25T11:10:27.241Z,0.90
2019-04-25T11:13:18.150Z,0.97
2019-04-25T11:16:10.129Z,1.27
2019-04-25T11:19:00.409Z,1.00
2019-04-25T11:21:51.774Z,1.10
2019-04-25T11:24:43.786Z,1.10
2019-04-25T11:27:34.857Z,1.00
2019-04-25T11:30:27.506Z,1.13
2019-04-25T11:33:18.658Z,0.93
2019-04-25T11:36:08.991Z,1.37
2019-04-25T11:39:21.982Z,1.00
2019-04-25T11:42:16.272Z,1.07
2019-04-25T11:45:07.857Z,1.03
2019-04-25T11:47:58.882Z,0.80
2019-04-25T11:50:51.265Z,1.00
2019-04-25T11:53:44.037Z,1.13
2019-04-25T11:56:34.561Z,1.93
2019-04-25T11:59:25.060Z,1.00
2019-04-25T12:02:15.312Z,1.00
2019-04-25T12:05:06.509Z,1.00
2019-04-25T12:07:57.684Z,1.03
2019-04-25T12:10:48.292Z,1.00
2019-04-25T12:13:39.362Z,1.20
2019-04-25T12:16:29.926Z,1.00
2019-04-25T12:19:34.331Z,1.00
2019-04-25T12:22:13.579Z,1.17
2019-04-25T12:25:04.843Z,1.10
2019-04-25T12:27:55.748Z,0.97
2019-04-25T12:30:47.333Z,1.07
2019-04-25T12:33:38.393Z,1.00
2019-04-25T12:36:28.853Z,1.40
2019-04-25T12:39:21.003Z,1.00
2019-04-25T12:42:11.771Z,1.00
2019-04-25T12:45:17.764Z,1.13
2019-04-25T12:48:08.856Z,0.90
2019-04-25T12:50:59.495Z,1.10
2019-04-25T12:53:51.360Z,0.97
2019-04-25T12:56:43.240Z,1.07
2019-04-25T12:59:34.963Z,1.07
2019-04-25T13:02:26.548Z,1.00
2019-04-25T13:05:17.476Z,1.00
2019-04-25T13:08:08.629Z,1.10
2019-04-25T13:11:07.824Z,1.00
2019-04-25T13:13:51.519Z,1.20
2019-04-25T13:16:44.270Z,1.00
2019-04-25T13:19:35.768Z,1.10
2019-04-25T13:22:27.225Z,1.07
2019-04-25T13:25:20.152Z,1.00
2019-04-25T13:28:34.134Z,1.10
2019-04-25T13:31:44.510Z,0.90
2019-04-25T13:34:37.934Z,0.90
2019-04-25T13:37:28.043Z,1.00
2019-04-25T13:40:18.801Z,1.00
2019-04-25T13:43:09.486Z,0.80
2019-04-25T13:45:59.932Z,1.17
2019-04-25T13:48:51.034Z,1.50
2019-04-25T13:51:41.227Z,1.30
2019-04-25T13:54:33.830Z,0.87
2019-04-25T13:57:26.193Z,0.90
2019-04-25T14:00:18.720Z,1.00
2019-04-25T14:03:09.226Z,1.07
2019-04-25T14:06:00.633Z,1.00
2019-04-25T14:08:53.300Z,0.80
2019-04-25T14:11:45.726Z,1.03
2019-04-25T14:14:39.998Z,0.93
2019-04-25T14:17:45.783Z,0.87
2019-04-25T14:20:40.012Z,1.10
2019-04-25T14:23:31.267Z,0.80
2019-04-25T14:26:22.906Z,0.97
2019-04-25T14:29:14.146Z,0.80
2019-04-25T14:32:07.783Z,1.10
2019-04-25T14:34:57.986Z,1.00
2019-04-25T14:37:48.172Z,0.90
2019-04-25T14:40:38.454Z,0.90
2019-04-25T14:43:29.517Z,0.90
2019-04-25T14:46:21.027Z,1.00
2019-04-25T14:49:12.687Z,1.03
2019-04-25T14:52:04.163Z,1.07
2019-04-25T14:55:08.244Z,0.83
2019-04-25T14:57:59.094Z,0.87
2019-04-25T15:00:51.372Z,1.00
2019-04-25T15:03:41.731Z,0.80
2019-04-25T15:06:32.898Z,1.00
2019-04-25T15:09:24.600Z,0.90
2019-04-25T15:12:15.695Z,0.80
2019-04-25T15:15:06.615Z,1.03
2019-04-25T15:17:57.876Z,1.00
2019-04-25T15:20:48.272Z,0.93
2019-04-25T15:23:38.643Z,0.87
2019-04-25T15:26:29.749Z,1.00
2019-04-25T15:29:20.199Z,0.90
2019-04-25T15:32:13.814Z,0.90
2019-04-25T15:35:05.249Z,0.90
2019-04-25T15:38:02.128Z,1.10
2019-04-25T15:40:59.864Z,0.87
2019-04-25T15:44:09.900Z,0.93
2019-04-25T15:47:02.142Z,1.23
2019-04-25T15:49:54.524Z,1.17
2019-04-25T15:52:45.140Z,0.80
2019-04-25T15:55:36.608Z,0.80
2019-04-25T15:58:28.046Z,1.00
2019-04-25T16:01:18.724Z,1.00
2019-04-25T16:04:09.379Z,1.00
2019-04-25T16:07:00.002Z,1.00
2019-04-25T16:09:51.188Z,0.90
2019-04-25T16:12:42.103Z,1.00
2019-04-25T16:15:33.225Z,1.40
2019-04-25T16:18:23.930Z,1.10
2019-04-25T16:21:14.277Z,1.00
2019-04-25T16:24:06.225Z,1.00
2019-04-25T16:26:57.267Z,0.90
2019-04-25T16:29:48.283Z,1.00
2019-04-25T16:32:38.810Z,1.00
2019-04-25T16:35:31.139Z,1.03
2019-04-25T16:38:22.219Z,1.10
2019-04-25T16:41:13.228Z,1.00
2019-04-25T16:44:08.079Z,0.90
2019-04-25T16:47:00.491Z,0.90
2019-04-25T16:49:51.183Z,0.90
2019-04-25T16:52:42.663Z,0.90
2019-04-25T16:55:34.284Z,1.00
2019-04-25T16:58:25.433Z,1.10
2019-04-25T17:01:15.786Z,1.20
2019-04-25T17:04:06.060Z,1.00
2019-04-25T17:06:57.605Z,1.03
2019-04-25T17:09:49.149Z,1.40
2019-04-25T17:12:40.800Z,1.07
2019-04-25T17:15:57.260Z,1.10
2019-04-25T17:18:58.125Z,1.23
2019-04-25T17:21:49.206Z,1.10
2019-04-25T17:24:41.235Z,1.20
2019-04-25T17:27:33.010Z,1.43
2019-04-25T17:30:24.058Z,1.60
2019-04-25T17:33:29.133Z,1.37
2019-04-25T17:36:29.059Z,1.43
2019-04-25T17:39:33.454Z,1.50
2019-04-25T17:42:24.775Z,1.60
2019-04-25T17:45:20.214Z,1.47
2019-04-25T17:48:10.577Z,1.30
2019-04-25T17:51:00.871Z,1.60
2019-04-25T17:53:51.915Z,1.43
2019-04-25T17:56:44.230Z,1.60
2019-04-25T17:59:35.572Z,1.30
2019-04-25T18:02:26.085Z,1.70
2019-04-25T18:05:16.964Z,1.70
2019-04-25T18:08:08.207Z,1.63
2019-04-25T18:10:59.624Z,1.70
2019-04-25T18:13:50.805Z,1.30
2019-04-25T18:16:45.067Z,1.60
2019-04-25T18:19:40.929Z,1.60
2019-04-25T18:22:50.345Z,1.20
2019-04-25T18:25:58.497Z,1.33
2019-04-25T18:28:55.513Z,1.20
2019-04-25T18:31:46.427Z,1.27
2019-04-25T18:34:52.283Z,1.17
2019-04-25T18:37:53.244Z,1.20
2019-04-25T18:40:58.178Z,1.23
2019-04-25T18:43:51.873Z,1.20
2019-04-25T18:46:45.077Z,1.00
2019-04-25T18:49:36.406Z,1.30
2019-04-25T18:53:00.083Z,1.10
2019-04-25T18:55:57.489Z,1.13
2019-04-25T18:59:03.157Z,1.07
2019-04-25T19:02:21.680Z,0.90
2019-04-25T19:05:29.692Z,0.83
2019-04-25T19:08:21.180Z,1.10
2019-04-25T19:11:11.714Z,1.10
2019-04-25T19:14:02.277Z,1.20
2019-04-25T19:16:53.763Z,1.30
2019-04-25T19:19:45.641Z,0.97
2019-04-25T19:22:36.450Z,0.90
2019-04-25T19:25:26.891Z,1.03
2019-04-25T19:28:18.312Z,1.10
2019-04-25T19:31:09.505Z,0.97
2019-04-25T19:34:00.499Z,0.90
2019-04-25T19:36:51.217Z,1.20
2019-04-25T19:39:45.610Z,0.97
2019-04-25T19:42:41.101Z,1.10
2019-04-25T19:45:33.336Z,0.97
2019-04-25T19:48:25.471Z,1.27
2019-04-25T19:51:16.027Z,0.87
2019-04-25T19:54:07.527Z,0.70
2019-04-25T19:56:58.637Z,0.80
2019-04-25T19:59:49.420Z,1.10
2019-04-25T20:02:49.233Z,0.80
2019-04-25T20:05:48.313Z,0.90
2019-04-25T20:08:52.805Z,1.00
2019-04-25T20:11:47.129Z,1.07
2019-04-25T20:14:37.417Z,1.00
2019-04-25T20:17:27.783Z,0.80
2019-04-25T20:20:17.937Z,1.03
2019-04-25T20:23:08.911Z,1.00
2019-04-25T20:25:59.630Z,1.10
2019-04-25T20:28:51.244Z,1.20
2019-04-25T20:31:42.484Z,1.23
2019-04-25T20:34:33.179Z,1.10
2019-04-25T20:37:23.988Z,1.03
2019-04-25T20:40:15.101Z,1.00
2019-04-25T20:43:06.573Z,1.00
2019-04-25T20:45:56.913Z,1.20
2019-04-25T20:48:48.163Z,1.00
2019-04-25T20:51:39.415Z,0.97
2019-04-25T20:54:29.519Z,0.97
2019-04-25T20:57:19.944Z,0.80
2019-04-25T21:00:10.999Z,1.03
2019-04-25T21:03:03.437Z,0.90
2019-04-25T21:05:57.174Z,1.10
2019-04-25T21:08:47.399Z,1.00
2019-04-25T21:11:38.450Z,1.00
2019-04-25T21:14:50.693Z,1.10
2019-04-25T21:17:46.987Z,1.00
2019-04-25T21:20:37.516Z,1.00
2019-04-25T21:23:28.733Z,1.10
2019-04-25T21:26:20.209Z,1.03
2019-04-25T21:29:11.645Z,1.20
2019-04-25T21:32:02.215Z,1.07
2019-04-25T21:34:55.206Z,1.00
2019-04-25T21:37:45.845Z,1.20
2019-04-25T21:41:14.923Z,1.00
2019-04-25T21:44:07.501Z,1.00
2019-04-25T21:46:58.700Z,1.10
2019-04-25T21:49:49.325Z,1.30
2019-04-25T21:52:40.350Z,1.00
2019-04-25T21:55:31.918Z,1.20
2019-04-25T21:58:23.028Z,1.53
2019-04-25T22:01:18.921Z,1.20
2019-04-25T22:04:10.480Z,1.27
2019-04-25T22:07:01.089Z,1.17
2019-04-25T22:09:52.451Z,1.23
2019-04-25T22:12:44.092Z,1.43
2019-04-25T22:15:34.654Z,1.63
2019-04-25T22:18:25.115Z,1.47
2019-04-25T22:21:16.070Z,1.43
2019-04-25T22:24:11.178Z,1.47
2019-04-25T22:27:03.277Z,1.47
2019-04-25T22:29:58.736Z,2.07
2019-04-25T22:33:03.681Z,2.20
2019-04-25T22:36:00.676Z,1.80
2019-04-25T22:39:10.000Z,1.63
2019-04-25T22:42:02.858Z,1.73
2019-04-25T22:44:55.061Z,1.57
2019-04-25T22:47:46.057Z,1.47
2019-04-25T22:50:37.188Z,1.43
2019-04-25T22:53:27.938Z,1.53
2019-04-25T22:56:19.111Z,2.03
2019-04-25T22:59:11.061Z,1.60
2019-04-25T23:02:09.591Z,1.60
2019-04-25T23:05:15.030Z,1.67
2019-04-25T23:08:03.091Z,2.00
2019-04-25T23:10:58.053Z,1.77
2019-04-25T23:13:48.236Z,1.77
2019-04-25T23:16:39.748Z,1.70
2019-04-25T23:19:30.112Z,1.73
2019-04-25T23:22:20.747Z,1.80
2019-04-25T23:25:14.133Z,1.70
2019-04-25T23:28:13.993Z,1.80
2019-04-25T23:31:17.972Z,1.70
2019-04-25T23:34:09.070Z,1.60
2019-04-25T23:37:00.131Z,1.90
2019-04-25T23:39:51.726Z,1.80
2019-04-25T23:42:42.942Z,1.70
2019-04-25T23:45:34.238Z,1.90
2019-04-25T23:48:24.926Z,1.83
2019-04-25T23:51:15.439Z,1.73
2019-04-25T23:54:07.468Z,2.20
2019-04-25T23:56:58.925Z,1.80
2019-04-25T23:59:49.539Z,1.90
